Time;durP1;ratioP1;P1;durP2;ratioP2;P2;SDS_P1;SDS_P2;PMS_P1;PMS_P2;Temp;Humidity;BMP_temperature;BMP_pressure;BME280_temperature;BME280_humidity;BME280_pressure;Samples;Min_cycle;Max_cycle;Signal;HPM_P1;HPM_P2
2023/08/31 00:00:11;;;;;;;6.13;2.10;;;17.30;80.10;;;;;;5064619;28;20471;-78
2023/08/31 00:02:40;;;;;;;5.10;2.10;;;17.30;80.10;;;;;;5065954;28;20496;-78
2023/08/31 00:05:09;;;;;;;4.47;2.00;;;17.30;80.00;;;;;;5067264;28;20449;-75
2023/08/31 00:07:38;;;;;;;5.00;2.13;;;17.30;79.90;;;;;;5065523;28;20548;-78
2023/08/31 00:10:10;;;;;;;5.10;2.47;;;17.30;79.80;;;;;;5063145;28;20880;-77
2023/08/31 00:12:38;;;;;;;7.10;2.60;;;17.30;79.70;;;;;;5063012;28;20924;-79
2023/08/31 00:15:08;;;;;;;5.17;2.40;;;17.30;79.60;;;;;;5066502;28;20532;-78
2023/08/31 00:17:37;;;;;;;4.90;2.30;;;17.30;79.60;;;;;;5060144;28;21156;-80
2023/08/31 00:20:08;;;;;;;4.60;2.50;;;17.20;79.40;;;;;;5064194;28;20489;-78
2023/08/31 00:22:38;;;;;;;6.60;2.97;;;17.20;79.40;;;;;;5062042;28;20493;-77
2023/08/31 00:25:08;;;;;;;5.57;2.97;;;17.10;79.40;;;;;;5063662;28;20468;-76
2023/08/31 00:27:37;;;;;;;6.37;3.00;;;17.10;79.50;;;;;;5062665;28;20962;-79
2023/08/31 00:30:09;;;;;;;5.43;2.70;;;17.00;79.50;;;;;;5066473;28;20491;-77
2023/08/31 00:32:36;;;;;;;6.93;3.47;;;17.00;79.60;;;;;;5061815;28;20467;-77
2023/08/31 00:35:08;;;;;;;6.10;2.87;;;17.00;79.70;;;;;;5062583;28;20464;-79
2023/08/31 00:37:38;;;;;;;7.47;3.00;;;17.00;79.70;;;;;;5063428;28;20541;-79
2023/08/31 00:40:08;;;;;;;4.87;2.70;;;17.00;79.70;;;;;;5065348;28;20537;-80
2023/08/31 00:42:37;;;;;;;5.10;3.00;;;17.00;79.80;;;;;;5063125;28;20461;-77
2023/08/31 00:45:07;;;;;;;5.87;3.30;;;17.00;79.70;;;;;;5075678;28;20472;-77
2023/08/31 00:47:35;;;;;;;5.63;2.87;;;17.00;79.70;;;;;;5063271;28;20561;-76
2023/08/31 00:50:03;;;;;;;5.23;2.43;;;17.00;79.70;;;;;;5063640;28;20503;-77
2023/08/31 00:52:31;;;;;;;6.50;3.33;;;17.00;79.60;;;;;;5066356;28;20464;-80
2023/08/31 00:55:04;;;;;;;7.20;3.40;;;17.00;79.50;;;;;;5082771;28;20543;-79
2023/08/31 00:57:33;;;;;;;11.10;3.43;;;17.00;79.50;;;;;;5061809;28;20464;-79
2023/08/31 01:00:01;;;;;;;6.80;3.80;;;17.00;79.50;;;;;;5080879;28;20927;-78
2023/08/31 01:02:38;;;;;;;6.30;3.43;;;17.00;79.40;;;;;;5064568;28;20491;-78
2023/08/31 01:05:30;;;;;;;8.67;4.03;;;16.90;79.40;;;;;;5063218;28;20546;-76
2023/08/31 01:08:09;;;;;;;6.60;3.37;;;16.90;79.50;;;;;;5062692;28;20460;-79
2023/08/31 01:10:45;;;;;;;8.27;4.60;;;16.90;79.50;;;;;;5054198;28;20822;-79
2023/08/31 01:13:16;;;;;;;5.97;3.73;;;16.90;79.60;;;;;;5066034;28;20566;-77
2023/08/31 01:15:51;;;;;;;7.23;4.60;;;16.90;79.60;;;;;;5079861;28;20468;-80
2023/08/31 01:18:22;;;;;;;9.80;4.60;;;16.90;79.60;;;;;;5059153;28;20468;-78
2023/08/31 01:20:59;;;;;;;8.00;4.00;;;16.90;79.60;;;;;;5077907;28;21012;-79
2023/08/31 01:23:35;;;;;;;8.13;4.73;;;16.90;79.60;;;;;;5066136;28;21165;-78
2023/08/31 01:26:04;;;;;;;6.10;4.03;;;16.80;79.60;;;;;;5060568;28;20452;-80
2023/08/31 01:28:33;;;;;;;8.10;4.90;;;16.80;79.60;;;;;;5061937;28;20543;-79
2023/08/31 01:31:05;;;;;;;8.80;5.17;;;16.80;79.70;;;;;;5062708;28;20475;-78
2023/08/31 01:33:33;;;;;;;9.90;5.33;;;16.80;79.70;;;;;;5064687;28;20463;-78
2023/08/31 01:36:03;;;;;;;8.30;5.20;;;16.80;79.70;;;;;;5060378;28;20460;-78
2023/08/31 01:38:36;;;;;;;9.70;5.33;;;16.80;79.70;;;;;;5063911;28;20471;-77
2023/08/31 01:41:08;;;;;;;8.10;5.10;;;16.80;79.70;;;;;;5060869;28;20791;-77
2023/08/31 01:43:38;;;;;;;9.03;5.40;;;16.80;79.60;;;;;;5064943;28;20460;-77
2023/08/31 01:46:07;;;;;;;8.13;5.20;;;16.70;79.60;;;;;;5077192;28;20510;-77
2023/08/31 01:48:39;;;;;;;11.47;5.57;;;16.70;79.80;;;;;;5064309;28;20479;-78
2023/08/31 01:51:08;;;;;;;9.90;5.90;;;16.70;79.80;;;;;;5063507;28;20555;-78
2023/08/31 01:53:36;;;;;;;10.43;5.80;;;16.70;79.80;;;;;;5079025;28;20455;-78
2023/08/31 01:56:06;;;;;;;14.60;6.13;;;16.60;79.70;;;;;;5057526;28;20468;-79
2023/08/31 01:58:35;;;;;;;12.20;5.93;;;16.60;79.80;;;;;;5076293;28;20493;-78
2023/08/31 02:01:03;;;;;;;9.13;5.53;;;16.60;79.70;;;;;;5062741;28;21069;-79
2023/08/31 02:03:31;;;;;;;10.17;6.03;;;16.60;79.80;;;;;;5081364;28;20464;-78
2023/08/31 02:05:59;;;;;;;9.30;5.63;;;16.60;79.80;;;;;;5084020;28;20528;-79
2023/08/31 02:08:27;;;;;;;13.27;5.20;;;16.60;79.80;;;;;;5064630;28;20796;-79
2023/08/31 02:10:56;;;;;;;10.10;5.53;;;16.70;79.70;;;;;;5066473;28;20553;-80
2023/08/31 02:13:25;;;;;;;11.20;6.10;;;16.70;79.70;;;;;;5067347;28;20828;-78
2023/08/31 02:15:53;;;;;;;10.00;5.27;;;16.70;79.70;;;;;;5066079;28;20457;-79
2023/08/31 02:18:21;;;;;;;12.73;4.97;;;16.70;79.70;;;;;;5080668;28;20546;-79
2023/08/31 02:20:53;;;;;;;9.63;5.30;;;16.70;79.60;;;;;;5063342;28;20544;-79
2023/08/31 02:23:21;;;;;;;10.77;5.73;;;16.70;79.60;;;;;;5064915;28;20484;-80
2023/08/31 02:25:48;;;;;;;10.83;5.70;;;16.70;79.50;;;;;;5066243;28;21463;-80
2023/08/31 02:28:19;;;;;;;14.20;5.27;;;16.70;79.40;;;;;;5064260;28;20466;-78
2023/08/31 02:30:59;;;;;;;13.20;5.17;;;16.60;79.40;;;;;;5062919;28;20500;-77
2023/08/31 02:33:31;;;;;;;13.83;5.10;;;16.60;79.40;;;;;;5066323;28;20460;-78
2023/08/31 02:36:00;;;;;;;11.30;5.63;;;16.50;79.50;;;;;;5065630;28;20888;-78
2023/08/31 02:38:29;;;;;;;9.07;5.00;;;16.50;79.40;;;;;;5065528;28;20510;-80
2023/08/31 02:40:57;;;;;;;11.20;5.93;;;16.40;79.50;;;;;;5065227;28;20460;-79
2023/08/31 02:43:26;;;;;;;15.60;5.37;;;16.40;79.60;;;;;;5065835;28;21398;-78
2023/08/31 02:46:01;;;;;;;10.10;5.80;;;16.40;79.60;;;;;;5067809;28;20508;-79
2023/08/31 02:48:30;;;;;;;11.33;5.73;;;16.40;79.60;;;;;;5065035;28;20479;-79
2023/08/31 02:51:00;;;;;;;9.23;5.50;;;16.40;79.60;;;;;;5064488;28;20489;-77
2023/08/31 02:53:30;;;;;;;10.80;5.80;;;16.40;79.60;;;;;;5068454;28;20466;-78
2023/08/31 02:55:58;;;;;;;11.67;5.33;;;16.40;79.60;;;;;;5067509;28;20542;-77
2023/08/31 02:58:27;;;;;;;11.00;5.60;;;16.40;79.70;;;;;;5057988;28;20468;-78
2023/08/31 03:00:55;;;;;;;9.03;5.30;;;16.40;79.60;;;;;;5068559;28;20557;-76
2023/08/31 03:03:25;;;;;;;8.80;5.20;;;16.40;79.60;;;;;;5066957;28;20547;-79
2023/08/31 03:05:56;;;;;;;11.40;5.30;;;16.40;79.60;;;;;;5062348;28;20463;-78
2023/08/31 03:08:24;;;;;;;10.27;5.30;;;16.40;79.70;;;;;;5068611;28;20460;-78
2023/08/31 03:10:53;;;;;;;8.90;5.40;;;16.40;79.60;;;;;;5061913;28;20544;-77
2023/08/31 03:13:21;;;;;;;10.10;5.10;;;16.40;79.60;;;;;;5062164;28;20518;-78
2023/08/31 03:15:49;;;;;;;11.43;5.93;;;16.40;79.70;;;;;;5080046;28;20487;-81
2023/08/31 03:18:17;;;;;;;8.90;5.37;;;16.50;79.70;;;;;;5066165;28;20460;-79
2023/08/31 03:20:46;;;;;;;10.73;6.13;;;16.50;79.60;;;;;;5076604;28;20467;-78
2023/08/31 03:23:15;;;;;;;9.80;5.70;;;16.50;79.60;;;;;;5080926;28;20476;-82
2023/08/31 03:25:43;;;;;;;11.40;5.40;;;16.50;79.60;;;;;;5079223;28;20933;-79
2023/08/31 03:28:11;;;;;;;10.57;5.70;;;16.50;79.50;;;;;;5067185;28;20455;-77
2023/08/31 03:30:39;;;;;;;13.73;7.00;;;16.60;79.50;;;;;;5077742;28;20504;-78
2023/08/31 03:33:08;;;;;;;11.13;6.30;;;16.60;79.50;;;;;;5066520;28;20479;-78
2023/08/31 03:35:37;;;;;;;11.53;6.13;;;16.60;79.50;;;;;;5061009;28;20467;-79
2023/08/31 03:38:06;;;;;;;10.73;6.30;;;16.60;79.40;;;;;;5063360;28;21072;-81
2023/08/31 03:40:35;;;;;;;13.30;6.23;;;16.60;79.50;;;;;;5063252;28;20464;-78
2023/08/31 03:43:04;;;;;;;10.20;6.43;;;16.60;79.50;;;;;;5059289;28;20876;-76
2023/08/31 03:45:32;;;;;;;11.73;5.73;;;16.60;79.40;;;;;;5065890;28;20496;-78
2023/08/31 03:48:00;;;;;;;14.57;6.47;;;16.60;79.40;;;;;;5066499;28;20972;-78
2023/08/31 03:50:28;;;;;;;9.00;6.17;;;16.60;79.40;;;;;;5064615;28;20563;-79
2023/08/31 03:52:56;;;;;;;10.80;7.13;;;16.60;79.40;;;;;;5064244;28;20464;-77
2023/08/31 03:55:25;;;;;;;11.50;6.40;;;16.50;79.40;;;;;;5064818;28;20880;-76
2023/08/31 03:57:53;;;;;;;9.73;6.97;;;16.50;79.40;;;;;;5079892;28;20892;-77
2023/08/31 04:00:23;;;;;;;11.30;6.67;;;16.50;79.40;;;;;;5061735;28;20463;-79
2023/08/31 04:02:51;;;;;;;10.30;6.00;;;16.50;79.40;;;;;;5064017;28;20532;-79
2023/08/31 04:05:22;;;;;;;10.00;6.40;;;16.50;79.50;;;;;;5062004;28;20463;-78
2023/08/31 04:07:51;;;;;;;10.77;6.80;;;16.60;79.50;;;;;;5061142;28;20510;-80
2023/08/31 04:10:19;;;;;;;15.00;7.80;;;16.60;79.40;;;;;;5063121;28;20468;-77
2023/08/31 04:12:49;;;;;;;10.40;6.70;;;16.50;79.20;;;;;;5062303;28;20455;-78
2023/08/31 04:15:17;;;;;;;13.10;6.80;;;16.50;79.30;;;;;;5060160;28;20825;-79
2023/08/31 04:17:45;;;;;;;11.67;7.47;;;16.50;79.30;;;;;;5066307;28;20452;-79
2023/08/31 04:20:14;;;;;;;12.63;7.60;;;16.50;79.20;;;;;;5065002;28;20463;-78
2023/08/31 04:22:42;;;;;;;11.30;6.80;;;16.50;79.10;;;;;;5061771;28;20463;-78
2023/08/31 04:25:09;;;;;;;9.07;6.67;;;16.40;79.20;;;;;;5063021;28;20470;-78
2023/08/31 04:27:39;;;;;;;11.93;7.13;;;16.40;79.20;;;;;;5066637;28;20471;-79
2023/08/31 04:30:10;;;;;;;10.17;6.83;;;16.40;79.20;;;;;;5065682;28;20466;-78
2023/08/31 04:32:40;;;;;;;13.87;7.63;;;16.40;79.20;;;;;;5061432;28;21036;-79
2023/08/31 04:35:09;;;;;;;14.03;8.30;;;16.40;79.20;;;;;;5062574;28;20473;-80
2023/08/31 04:37:37;;;;;;;15.27;9.20;;;16.30;79.10;;;;;;5060494;28;20831;-79
2023/08/31 04:40:08;;;;;;;10.70;7.53;;;16.30;79.20;;;;;;5063194;28;20463;-78
2023/08/31 04:42:36;;;;;;;12.80;8.53;;;16.30;79.20;;;;;;5062707;28;20972;-78
2023/08/31 04:45:05;;;;;;;16.40;9.37;;;16.30;79.30;;;;;;5062455;28;20552;-79
2023/08/31 04:47:34;;;;;;;14.90;8.93;;;16.30;79.30;;;;;;5064373;28;20550;-79
2023/08/31 04:50:03;;;;;;;11.47;8.73;;;16.30;79.30;;;;;;5065876;28;20796;-79
2023/08/31 04:52:31;;;;;;;14.67;9.53;;;16.30;79.20;;;;;;5069444;28;20483;-78
2023/08/31 04:55:03;;;;;;;13.87;9.40;;;16.30;79.20;;;;;;5068099;28;20885;-79
2023/08/31 04:57:31;;;;;;;15.53;9.27;;;16.30;79.30;;;;;;5065712;28;20490;-77
2023/08/31 04:59:59;;;;;;;11.33;8.40;;;16.40;79.20;;;;;;5056603;28;20858;-78
2023/08/31 05:02:28;;;;;;;14.00;9.07;;;16.40;79.20;;;;;;5065541;28;20502;-77
2023/08/31 05:04:57;;;;;;;13.30;8.30;;;16.40;79.20;;;;;;5065054;28;20467;-78
2023/08/31 05:07:25;;;;;;;14.40;9.23;;;16.40;79.30;;;;;;5063103;28;20968;-79
2023/08/31 05:09:53;;;;;;;15.20;9.63;;;16.40;79.10;;;;;;5064837;28;20460;-79
2023/08/31 05:12:21;;;;;;;14.33;9.03;;;16.30;79.10;;;;;;5063087;28;20565;-78
2023/08/31 05:14:49;;;;;;;14.80;9.53;;;16.30;79.20;;;;;;5062192;28;20448;-78
2023/08/31 05:17:17;;;;;;;19.73;9.53;;;16.30;79.20;;;;;;5066157;28;20467;-78
2023/08/31 05:19:46;;;;;;;11.80;8.20;;;16.30;79.20;;;;;;5062196;28;20513;-77
2023/08/31 05:22:16;;;;;;;13.43;8.87;;;16.30;79.30;;;;;;5063000;28;20458;-78
2023/08/31 05:24:44;;;;;;;12.23;8.10;;;16.30;79.30;;;;;;5065852;28;20546;-80
2023/08/31 05:27:12;;;;;;;13.33;9.33;;;16.30;79.30;;;;;;5067279;28;20455;-78
2023/08/31 05:29:41;;;;;;;12.97;9.87;;;16.40;79.30;;;;;;5063559;28;20459;-77
2023/08/31 05:32:10;;;;;;;12.47;8.70;;;16.40;79.60;;;;;;5062533;28;20519;-78
2023/08/31 05:34:39;;;;;;;12.03;8.23;;;16.50;79.20;;;;;;5060664;28;20463;-78
2023/08/31 05:37:07;;;;;;;14.67;8.67;;;16.50;79.10;;;;;;5066988;28;20464;-79
2023/08/31 05:39:36;;;;;;;15.13;8.07;;;16.90;81.40;;;;;;5066120;28;20459;-78
2023/08/31 05:42:05;;;;;;;15.77;8.27;;;17.40;79.50;;;;;;5063103;28;20808;-78
2023/08/31 05:44:33;;;;;;;10.70;7.67;;;17.60;78.20;;;;;;5067527;28;20915;-76
2023/08/31 05:47:01;;;;;;;11.70;6.93;;;17.90;80.10;;;;;;5067697;28;20548;-78
2023/08/31 05:49:29;;;;;;;11.87;6.57;;;19.00;79.00;;;;;;5064244;28;20465;-76
2023/08/31 05:51:57;;;;;;;12.57;7.33;;;19.60;75.80;;;;;;5070539;28;20485;-78
2023/08/31 05:54:25;;;;;;;10.23;6.90;;;19.40;74.10;;;;;;5066773;28;20461;-80
2023/08/31 05:56:54;;;;;;;10.93;7.20;;;19.00;74.00;;;;;;5064020;28;20470;-79
2023/08/31 05:59:22;;;;;;;10.70;6.43;;;18.50;74.20;;;;;;5065186;28;20476;-79
2023/08/31 06:01:50;;;;;;;9.00;6.67;;;18.20;74.90;;;;;;5066346;28;20568;-79
2023/08/31 06:04:22;;;;;;;13.13;6.67;;;17.90;75.30;;;;;;5079131;28;20464;-79
2023/08/31 06:06:53;;;;;;;10.10;5.63;;;17.70;75.60;;;;;;5068369;28;20496;-79
2023/08/31 06:09:21;;;;;;;10.00;7.03;;;17.50;75.80;;;;;;5067158;28;20461;-79
2023/08/31 06:11:49;;;;;;;11.40;7.00;;;17.40;76.10;;;;;;5064312;28;20503;-79
2023/08/31 06:14:19;;;;;;;10.60;5.67;;;17.30;76.20;;;;;;5062887;28;20569;-80
2023/08/31 06:16:47;;;;;;;8.73;5.40;;;17.20;76.50;;;;;;5068813;28;20444;-80
2023/08/31 06:19:16;;;;;;;8.67;5.37;;;17.10;76.70;;;;;;5067829;28;20493;-78
2023/08/31 06:21:44;;;;;;;9.80;5.40;;;17.10;76.80;;;;;;5068464;28;20533;-80
2023/08/31 06:24:12;;;;;;;11.00;5.00;;;17.00;76.80;;;;;;5066792;28;20449;-79
2023/08/31 06:26:41;;;;;;;9.57;5.27;;;17.00;76.90;;;;;;5063584;28;20850;-78
2023/08/31 06:29:10;;;;;;;13.67;5.10;;;16.90;77.00;;;;;;5069274;28;20445;-78
2023/08/31 06:31:39;;;;;;;6.50;4.30;;;16.90;77.10;;;;;;5069666;28;20465;-79
2023/08/31 06:34:07;;;;;;;8.20;4.70;;;16.90;77.30;;;;;;5070683;28;20496;-78
2023/08/31 06:36:35;;;;;;;6.83;4.13;;;16.80;77.40;;;;;;5066051;28;20963;-79
2023/08/31 06:39:04;;;;;;;10.73;4.40;;;16.90;77.50;;;;;;5069523;28;20452;-78
2023/08/31 06:41:32;;;;;;;8.60;4.60;;;16.80;77.50;;;;;;5077378;28;20447;-79
2023/08/31 06:44:02;;;;;;;9.77;4.17;;;16.80;77.50;;;;;;5069933;28;20451;-79
2023/08/31 06:46:33;;;;;;;9.50;4.33;;;16.80;77.50;;;;;;5066676;28;20823;-78
2023/08/31 06:49:04;;;;;;;9.00;4.23;;;16.80;77.60;;;;;;5064700;28;20460;-79
2023/08/31 06:51:32;;;;;;;9.57;4.43;;;16.90;77.60;;;;;;5066325;28;20502;-79
2023/08/31 06:54:05;;;;;;;7.93;4.90;;;16.90;77.60;;;;;;5066293;28;20459;-78
2023/08/31 06:56:34;;;;;;;9.07;4.47;;;16.90;77.60;;;;;;5067132;28;20460;-80
2023/08/31 06:59:02;;;;;;;6.73;3.50;;;16.90;77.50;;;;;;5065310;28;20454;-76
2023/08/31 07:01:32;;;;;;;12.63;4.40;;;16.90;77.50;;;;;;5065138;28;20487;-79
2023/08/31 07:04:00;;;;;;;8.83;3.47;;;16.90;77.50;;;;;;5068528;28;20462;-78
2023/08/31 07:06:30;;;;;;;17.77;3.60;;;16.90;77.50;;;;;;5067656;28;20928;-77
2023/08/31 07:08:58;;;;;;;7.10;3.40;;;17.00;77.50;;;;;;5065133;28;20561;-80
2023/08/31 07:11:27;;;;;;;8.03;3.23;;;17.00;77.50;;;;;;5069457;28;20455;-79
2023/08/31 07:13:57;;;;;;;7.80;3.10;;;17.00;77.50;;;;;;5066605;28;20466;-78
2023/08/31 07:16:25;;;;;;;7.27;2.90;;;17.10;77.40;;;;;;5068335;28;20924;-79
2023/08/31 07:18:53;;;;;;;7.37;3.27;;;17.10;77.30;;;;;;5067890;28;21157;-79
2023/08/31 07:21:22;;;;;;;4.80;2.40;;;17.20;77.20;;;;;;5065007;28;21190;-80
2023/08/31 07:23:51;;;;;;;7.30;2.73;;;17.20;77.00;;;;;;5067547;28;20486;-78
2023/08/31 07:26:19;;;;;;;8.03;2.97;;;17.20;77.00;;;;;;5064405;28;20457;-80
2023/08/31 07:28:48;;;;;;;6.87;2.90;;;17.10;77.00;;;;;;5069521;28;20550;-77
2023/08/31 07:31:16;;;;;;;5.50;2.50;;;17.20;76.90;;;;;;5064533;28;20991;-80
2023/08/31 07:33:44;;;;;;;10.23;3.57;;;17.20;76.90;;;;;;5072592;28;20970;-78
2023/08/31 07:36:12;;;;;;;8.93;3.10;;;17.20;76.80;;;;;;5070722;28;20458;-78
2023/08/31 07:38:40;;;;;;;5.53;2.13;;;17.20;76.80;;;;;;5067429;28;20548;-79
2023/08/31 07:41:09;;;;;;;8.73;2.63;;;17.30;76.70;;;;;;5065588;28;20528;-79
2023/08/31 07:43:37;;;;;;;7.60;2.60;;;17.30;76.40;;;;;;5066732;28;20441;-79
2023/08/31 07:46:12;;;;;;;7.47;2.40;;;17.30;76.20;;;;;;5064715;28;20532;-80
2023/08/31 07:48:40;;;;;;;9.53;3.30;;;17.30;76.20;;;;;;5065970;28;20475;-78
2023/08/31 07:51:08;;;;;;;8.20;2.63;;;17.30;76.10;;;;;;5080196;28;20567;-80
2023/08/31 07:53:36;;;;;;;8.00;2.50;;;17.30;76.00;;;;;;5066104;28;20480;-78
2023/08/31 07:56:04;;;;;;;6.37;2.80;;;17.40;75.80;;;;;;5064280;28;21197;-78
2023/08/31 07:58:34;;;;;;;4.70;2.20;;;17.40;75.70;;;;;;5063932;28;20465;-79
2023/08/31 08:01:01;;;;;;;6.20;2.03;;;17.40;75.60;;;;;;5064186;28;20551;-78
2023/08/31 08:03:30;;;;;;;5.77;2.67;;;17.50;75.60;;;;;;5073817;28;20495;-78
2023/08/31 08:05:58;;;;;;;7.10;2.90;;;17.50;75.40;;;;;;5063224;28;20469;-79
2023/08/31 08:08:26;;;;;;;6.23;2.10;;;17.50;75.30;;;;;;5065454;28;20461;-78
2023/08/31 08:10:54;;;;;;;5.93;2.17;;;17.60;75.30;;;;;;5066645;28;20958;-79
2023/08/31 08:13:23;;;;;;;8.67;2.77;;;17.60;75.20;;;;;;5065043;28;20464;-79
2023/08/31 08:15:52;;;;;;;11.80;2.97;;;17.60;75.20;;;;;;5065656;28;20449;-79
2023/08/31 08:18:20;;;;;;;7.37;2.30;;;17.60;74.80;;;;;;5066481;28;20536;-79
2023/08/31 08:20:49;;;;;;;9.27;2.43;;;17.60;74.60;;;;;;5064011;28;20446;-79
2023/08/31 08:23:17;;;;;;;6.27;2.27;;;17.60;74.60;;;;;;5066345;28;20444;-79
2023/08/31 08:25:45;;;;;;;6.10;2.10;;;17.70;74.30;;;;;;5064601;28;20461;-79
2023/08/31 08:28:13;;;;;;;6.87;2.10;;;17.70;74.00;;;;;;5067269;28;20840;-79
2023/08/31 08:30:41;;;;;;;10.00;2.23;;;17.80;74.00;;;;;;5066493;28;21098;-79
2023/08/31 08:33:12;;;;;;;6.87;2.63;;;17.80;74.00;;;;;;5065970;28;20476;-78
2023/08/31 08:35:41;;;;;;;7.33;2.40;;;17.90;73.80;;;;;;5063267;28;20488;-78
2023/08/31 08:38:09;;;;;;;9.00;2.20;;;18.00;73.60;;;;;;5062146;28;20454;-79
2023/08/31 08:40:37;;;;;;;6.80;2.20;;;18.00;73.40;;;;;;5065537;28;20543;-78
2023/08/31 08:43:07;;;;;;;5.70;2.17;;;18.00;73.10;;;;;;5062444;28;20450;-80
2023/08/31 08:45:41;;;;;;;5.40;2.07;;;18.00;73.20;;;;;;5065434;28;21004;-79
2023/08/31 08:48:10;;;;;;;6.77;2.23;;;18.00;73.10;;;;;;5065091;28;20456;-79
2023/08/31 08:50:38;;;;;;;6.80;2.50;;;18.00;73.00;;;;;;5066044;28;20807;-78
2023/08/31 08:53:06;;;;;;;8.63;2.70;;;18.00;72.90;;;;;;5062958;28;20580;-81
2023/08/31 08:55:35;;;;;;;4.80;1.97;;;18.10;72.80;;;;;;5066327;28;20483;-80
2023/08/31 08:58:03;;;;;;;10.93;2.50;;;18.10;72.60;;;;;;5066434;28;20460;-79
2023/08/31 09:00:33;;;;;;;8.83;2.57;;;18.00;72.50;;;;;;5062583;28;20469;-79
2023/08/31 09:03:02;;;;;;;6.30;2.20;;;18.00;72.30;;;;;;5064994;28;20456;-79
2023/08/31 09:05:33;;;;;;;4.90;1.67;;;18.00;72.40;;;;;;5065356;28;20824;-78
2023/08/31 09:08:03;;;;;;;5.87;2.30;;;18.10;72.50;;;;;;5070561;28;21027;-80
2023/08/31 09:10:36;;;;;;;5.60;2.00;;;18.10;72.50;;;;;;5069878;28;20450;-81
2023/08/31 09:13:08;;;;;;;6.77;2.50;;;18.20;72.40;;;;;;5070193;28;20455;-80
2023/08/31 09:15:44;;;;;;;6.00;2.00;;;18.30;72.20;;;;;;5067094;28;20454;-79
2023/08/31 09:18:17;;;;;;;5.77;2.10;;;18.40;72.00;;;;;;5068327;28;21049;-80
2023/08/31 09:20:47;;;;;;;5.80;2.07;;;18.50;72.00;;;;;;5067746;28;20452;-81
2023/08/31 09:23:15;;;;;;;6.80;2.20;;;18.60;71.90;;;;;;5071125;28;20450;-78
2023/08/31 09:25:44;;;;;;;11.17;2.50;;;18.60;71.80;;;;;;5068815;28;20507;-80
2023/08/31 09:28:14;;;;;;;6.13;2.20;;;18.70;71.70;;;;;;5067546;28;21001;-78
2023/08/31 09:30:42;;;;;;;5.33;2.10;;;18.70;71.60;;;;;;5066996;28;20481;-80
2023/08/31 09:33:14;;;;;;;5.20;2.03;;;18.70;71.50;;;;;;5082035;28;20457;-78
2023/08/31 09:35:50;;;;;;;7.83;2.00;;;18.80;71.30;;;;;;5068218;28;20484;-80
2023/08/31 09:38:18;;;;;;;6.13;1.73;;;18.80;70.90;;;;;;5068930;28;20461;-82
2023/08/31 09:40:47;;;;;;;5.20;1.87;;;18.80;70.70;;;;;;5070305;28;20465;-79
2023/08/31 09:43:20;;;;;;;5.40;2.03;;;18.90;70.70;;;;;;5068457;28;20955;-79
2023/08/31 09:45:49;;;;;;;7.77;3.47;;;18.90;70.20;;;;;;5067342;28;20453;-79
2023/08/31 09:48:17;;;;;;;5.30;2.00;;;18.80;70.10;;;;;;5069767;28;20468;-79
2023/08/31 09:50:46;;;;;;;6.73;2.00;;;18.80;69.90;;;;;;5064391;28;20858;-79
2023/08/31 09:53:17;;;;;;;5.70;2.13;;;18.80;69.80;;;;;;5071100;28;20465;-78
2023/08/31 09:55:48;;;;;;;6.90;2.00;;;18.80;69.70;;;;;;5068972;28;20492;-80
2023/08/31 09:58:20;;;;;;;7.03;2.07;;;18.90;69.60;;;;;;5068102;28;20486;-80
2023/08/31 10:00:51;;;;;;;6.73;2.03;;;18.90;69.60;;;;;;5066953;28;20560;-79
2023/08/31 10:03:21;;;;;;;5.53;1.77;;;18.90;69.50;;;;;;5071067;28;20792;-78
2023/08/31 10:05:50;;;;;;;6.50;2.17;;;18.90;69.40;;;;;;5064650;28;20519;-78
2023/08/31 10:08:20;;;;;;;5.70;2.10;;;18.90;69.40;;;;;;5070157;28;20511;-82
2023/08/31 10:10:48;;;;;;;5.40;2.00;;;19.00;69.40;;;;;;5066711;28;20542;-79
2023/08/31 10:13:17;;;;;;;6.80;1.77;;;19.00;69.30;;;;;;5069192;28;20533;-79
2023/08/31 10:15:47;;;;;;;6.10;2.00;;;19.10;69.10;;;;;;5064829;28;20481;-81
2023/08/31 10:18:16;;;;;;;7.60;1.83;;;19.10;68.80;;;;;;5066242;28;20447;-80
2023/08/31 10:20:45;;;;;;;6.27;2.20;;;19.00;68.70;;;;;;5066231;28;20456;-79
2023/08/31 10:23:14;;;;;;;5.00;1.90;;;19.00;68.80;;;;;;5071918;28;20708;-78
2023/08/31 10:26:04;;;;;;;5.57;1.70;;;19.10;68.60;;;;;;5074909;28;20454;-80
2023/08/31 10:28:41;;;;;;;4.53;1.67;;;19.10;68.60;;;;;;5072009;28;20540;-79
2023/08/31 10:31:10;;;;;;;6.47;2.17;;;19.20;68.60;;;;;;5067606;28;20882;-79
2023/08/31 10:33:42;;;;;;;6.30;2.00;;;19.20;68.60;;;;;;5063450;28;20527;-81
2023/08/31 10:36:12;;;;;;;6.03;2.23;;;19.20;68.50;;;;;;5067207;28;20935;-79
2023/08/31 10:38:42;;;;;;;6.70;1.97;;;19.30;68.30;;;;;;5083908;28;20816;-81
2023/08/31 10:41:25;;;;;;;7.37;1.60;;;19.20;68.00;;;;;;5069043;28;21015;-79
2023/08/31 10:43:57;;;;;;;5.70;2.40;;;19.20;67.90;;;;;;5068801;28;20484;-81
2023/08/31 10:46:28;;;;;;;5.27;2.17;;;19.20;68.10;;;;;;5068615;28;20511;-78
2023/08/31 10:48:58;;;;;;;8.40;2.77;;;19.10;67.90;;;;;;5063978;28;21333;-82
2023/08/31 10:51:28;;;;;;;6.90;2.07;;;19.10;67.90;;;;;;5068072;28;20453;-78
2023/08/31 10:54:13;;;;;;;8.73;2.43;;;19.10;67.90;;;;;;5065582;28;20503;-79
2023/08/31 10:57:03;;;;;;;8.00;2.37;;;19.00;67.70;;;;;;5068685;28;20481;-81
2023/08/31 10:59:46;;;;;;;6.40;2.60;;;19.00;67.90;;;;;;5063075;28;20805;-79
2023/08/31 11:02:31;;;;;;;8.67;2.10;;;19.00;67.90;;;;;;5061205;28;20514;-80
2023/08/31 11:05:08;;;;;;;7.13;1.97;;;19.10;68.00;;;;;;5047038;28;20451;-82
2023/08/31 11:07:37;;;;;;;6.03;2.07;;;19.20;68.10;;;;;;5047519;28;20454;-79
2023/08/31 11:10:10;;;;;;;7.60;3.00;;;19.20;68.20;;;;;;5046206;28;20553;-80
2023/08/31 11:12:39;;;;;;;9.60;2.40;;;19.30;68.00;;;;;;5049206;28;20450;-79
2023/08/31 11:15:09;;;;;;;8.80;2.50;;;19.30;67.90;;;;;;5046363;28;21052;-79
2023/08/31 11:17:40;;;;;;;6.13;2.07;;;19.30;67.70;;;;;;5048272;28;21004;-80
2023/08/31 11:20:09;;;;;;;6.60;2.20;;;19.30;67.70;;;;;;5046685;28;20459;-80
2023/08/31 11:22:42;;;;;;;5.60;1.80;;;19.40;67.70;;;;;;5045999;28;20529;-82
2023/08/31 11:25:13;;;;;;;9.40;2.40;;;19.40;67.60;;;;;;5046069;28;20535;-81
2023/08/31 11:27:43;;;;;;;7.80;2.50;;;19.40;67.70;;;;;;5046946;28;21096;-79
2023/08/31 11:30:15;;;;;;;5.90;2.00;;;19.50;67.60;;;;;;5046549;28;20450;-81
2023/08/31 11:32:47;;;;;;;10.60;2.10;;;19.50;67.50;;;;;;5049111;28;20541;-79
2023/08/31 11:35:17;;;;;;;9.30;2.43;;;19.60;67.50;;;;;;5046872;28;20878;-81
2023/08/31 11:37:45;;;;;;;7.83;1.90;;;19.60;67.30;;;;;;5048454;28;20484;-79
2023/08/31 11:40:15;;;;;;;5.70;2.00;;;19.60;67.20;;;;;;5045567;28;20468;-80
2023/08/31 11:42:45;;;;;;;7.33;1.77;;;19.60;67.20;;;;;;5047702;28;20494;-79
2023/08/31 11:45:14;;;;;;;7.90;2.17;;;19.60;67.00;;;;;;5042700;28;20455;-80
2023/08/31 11:47:44;;;;;;;6.70;1.80;;;19.60;66.90;;;;;;5062771;28;20459;-79
2023/08/31 11:50:13;;;;;;;7.33;1.80;;;19.60;66.90;;;;;;5047113;28;21032;-78
2023/08/31 11:52:42;;;;;;;6.83;2.13;;;19.60;66.80;;;;;;5045512;28;20458;-79
2023/08/31 11:55:14;;;;;;;6.13;2.20;;;19.60;66.80;;;;;;5045583;28;21069;-80
2023/08/31 11:57:51;;;;;;;7.00;2.33;;;19.70;66.90;;;;;;5062337;28;20462;-80
2023/08/31 12:00:20;;;;;;;6.00;1.80;;;19.80;67.00;;;;;;5047188;28;20469;-79
2023/08/31 12:02:56;;;;;;;6.40;2.37;;;19.80;67.00;;;;;;5046799;28;20796;-78
2023/08/31 12:05:25;;;;;;;6.97;2.00;;;19.90;66.90;;;;;;5047062;28;21151;-79
2023/08/31 12:07:54;;;;;;;5.30;1.90;;;19.90;66.90;;;;;;5046908;28;20944;-77
2023/08/31 12:10:24;;;;;;;5.10;2.10;;;20.00;66.80;;;;;;5045143;28;20504;-78
2023/08/31 12:12:55;;;;;;;7.20;1.90;;;20.00;66.80;;;;;;5048582;28;20454;-83
2023/08/31 12:15:24;;;;;;;9.80;1.97;;;20.10;66.90;;;;;;5061959;28;20489;-79
2023/08/31 12:17:54;;;;;;;5.83;2.40;;;20.10;66.90;;;;;;5042552;28;20546;-80
2023/08/31 12:20:26;;;;;;;6.50;2.00;;;20.10;66.70;;;;;;5062144;28;20462;-80
2023/08/31 12:22:54;;;;;;;5.57;1.77;;;20.10;66.60;;;;;;5045598;28;20539;-83
2023/08/31 12:25:22;;;;;;;7.17;2.20;;;20.10;66.40;;;;;;5042095;28;20450;-81
2023/08/31 12:27:50;;;;;;;5.03;2.03;;;20.10;66.30;;;;;;5043156;28;20462;-81
2023/08/31 12:30:20;;;;;;;5.10;1.67;;;20.10;66.30;;;;;;5046198;28;20562;-81
2023/08/31 12:32:48;;;;;;;7.63;2.77;;;20.10;66.10;;;;;;5066512;28;20488;-82
2023/08/31 12:35:16;;;;;;;8.60;2.50;;;20.10;66.10;;;;;;5059974;28;20470;-79
2023/08/31 12:37:44;;;;;;;8.43;2.30;;;20.10;66.00;;;;;;5064701;28;20489;-80
2023/08/31 12:40:12;;;;;;;5.03;1.83;;;20.10;66.00;;;;;;5059875;28;20511;-79
2023/08/31 12:42:40;;;;;;;5.80;1.87;;;20.10;66.00;;;;;;5065037;28;20446;-81
2023/08/31 12:45:09;;;;;;;10.43;2.30;;;20.10;66.00;;;;;;5066042;28;20457;-82
2023/08/31 12:47:39;;;;;;;5.40;2.30;;;20.10;65.90;;;;;;5058620;28;21052;-81
2023/08/31 12:50:07;;;;;;;8.13;2.47;;;20.20;65.80;;;;;;5065023;28;20489;-80
2023/08/31 12:52:35;;;;;;;5.53;1.77;;;20.20;65.70;;;;;;5063810;28;20472;-78
2023/08/31 12:55:10;;;;;;;7.30;2.60;;;20.20;65.60;;;;;;5062545;28;20952;-79